sensor_id;sensor_type;location;lat;lon;timestamp;P1;durP1;ratioP1;P2;durP2;ratioP2
50745;SDS011;36711;51.972;21.204;2022-08-21T00:01:51;6.50;;;3.00;;
50745;SDS011;36711;51.972;21.204;2022-08-21T00:04:20;4.40;;;2.90;;
50745;SDS011;36711;51.972;21.204;2022-08-21T00:06:49;4.80;;;3.20;;
50745;SDS011;36711;51.972;21.204;2022-08-21T00:09:18;6.00;;;2.90;;
50745;SDS011;36711;51.972;21.204;2022-08-21T00:11:47;4.80;;;3.00;;
50745;SDS011;36711;51.972;21.204;2022-08-21T00:14:15;4.40;;;2.90;;
50745;SDS011;36711;51.972;21.204;2022-08-21T00:16:44;7.20;;;3.00;;
50745;SDS011;36711;51.972;21.204;2022-08-21T00:19:12;8.20;;;2.90;;
50745;SDS011;36711;51.972;21.204;2022-08-21T00:21:39;5.40;;;3.00;;
50745;SDS011;36711;51.972;21.204;2022-08-21T00:24:12;4.30;;;3.10;;
50745;SDS011;36711;51.972;21.204;2022-08-21T00:26:40;5.40;;;3.20;;
50745;SDS011;36711;51.972;21.204;2022-08-21T00:29:07;4.60;;;2.80;;
50745;SDS011;36711;51.972;21.204;2022-08-21T00:31:35;7.60;;;2.50;;
50745;SDS011;36711;51.972;21.204;2022-08-21T00:34:03;3.80;;;2.70;;
50745;SDS011;36711;51.972;21.204;2022-08-21T00:36:31;7.20;;;2.90;;
50745;SDS011;36711;51.972;21.204;2022-08-21T00:38:59;4.10;;;3.20;;
50745;SDS011;36711;51.972;21.204;2022-08-21T00:41:27;5.50;;;3.50;;
50745;SDS011;36711;51.972;21.204;2022-08-21T00:44:05;4.90;;;3.20;;
50745;SDS011;36711;51.972;21.204;2022-08-21T00:46:35;4.90;;;3.30;;
50745;SDS011;36711;51.972;21.204;2022-08-21T00:49:04;4.50;;;2.80;;
50745;SDS011;36711;51.972;21.204;2022-08-21T00:51:38;4.50;;;3.20;;
50745;SDS011;36711;51.972;21.204;2022-08-21T00:54:09;5.40;;;3.00;;
50745;SDS011;36711;51.972;21.204;2022-08-21T00:56:46;5.90;;;2.90;;
50745;SDS011;36711;51.972;21.204;2022-08-21T00:59:17;7.20;;;3.70;;
50745;SDS011;36711;51.972;21.204;2022-08-21T01:01:48;5.00;;;3.10;;
50745;SDS011;36711;51.972;21.204;2022-08-21T01:04:17;6.80;;;3.10;;
50745;SDS011;36711;51.972;21.204;2022-08-21T01:06:45;6.10;;;3.10;;
50745;SDS011;36711;51.972;21.204;2022-08-21T01:09:13;5.40;;;3.10;;
50745;SDS011;36711;51.972;21.204;2022-08-21T01:11:41;7.90;;;3.20;;
50745;SDS011;36711;51.972;21.204;2022-08-21T01:14:10;5.80;;;3.30;;
50745;SDS011;36711;51.972;21.204;2022-08-21T01:16:41;3.50;;;2.80;;
50745;SDS011;36711;51.972;21.204;2022-08-21T01:19:11;7.70;;;3.10;;
50745;SDS011;36711;51.972;21.204;2022-08-21T01:21:40;4.80;;;3.20;;
50745;SDS011;36711;51.972;21.204;2022-08-21T01:24:10;4.20;;;2.80;;
50745;SDS011;36711;51.972;21.204;2022-08-21T01:26:39;8.00;;;3.20;;
50745;SDS011;36711;51.972;21.204;2022-08-21T01:29:15;4.20;;;3.30;;
50745;SDS011;36711;51.972;21.204;2022-08-21T01:31:54;4.50;;;2.90;;
50745;SDS011;36711;51.972;21.204;2022-08-21T01:34:22;4.50;;;2.90;;
50745;SDS011;36711;51.972;21.204;2022-08-21T01:36:50;4.20;;;2.90;;
50745;SDS011;36711;51.972;21.204;2022-08-21T01:39:18;4.10;;;3.30;;
50745;SDS011;36711;51.972;21.204;2022-08-21T01:41:46;4.30;;;3.30;;
50745;SDS011;36711;51.972;21.204;2022-08-21T01:44:14;6.90;;;3.10;;
50745;SDS011;36711;51.972;21.204;2022-08-21T01:46:42;5.00;;;2.90;;
50745;SDS011;36711;51.972;21.204;2022-08-21T01:49:10;3.90;;;3.00;;
50745;SDS011;36711;51.972;21.204;2022-08-21T01:51:37;4.30;;;3.10;;
50745;SDS011;36711;51.972;21.204;2022-08-21T01:54:05;5.30;;;3.40;;
50745;SDS011;36711;51.972;21.204;2022-08-21T01:56:40;4.60;;;3.20;;
50745;SDS011;36711;51.972;21.204;2022-08-21T01:59:10;3.80;;;3.50;;
50745;SDS011;36711;51.972;21.204;2022-08-21T02:01:38;6.90;;;3.10;;
50745;SDS011;36711;51.972;21.204;2022-08-21T02:04:09;5.40;;;3.10;;
50745;SDS011;36711;51.972;21.204;2022-08-21T02:06:38;4.50;;;3.30;;
50745;SDS011;36711;51.972;21.204;2022-08-21T02:09:07;4.90;;;3.10;;
50745;SDS011;36711;51.972;21.204;2022-08-21T02:11:35;5.40;;;2.90;;
50745;SDS011;36711;51.972;21.204;2022-08-21T02:14:08;7.30;;;3.30;;
50745;SDS011;36711;51.972;21.204;2022-08-21T02:16:53;8.40;;;3.00;;
50745;SDS011;36711;51.972;21.204;2022-08-21T02:19:35;3.40;;;2.70;;
50745;SDS011;36711;51.972;21.204;2022-08-21T02:22:08;4.40;;;2.60;;
50745;SDS011;36711;51.972;21.204;2022-08-21T02:24:37;7.30;;;3.00;;
50745;SDS011;36711;51.972;21.204;2022-08-21T02:27:22;7.60;;;2.80;;
50745;SDS011;36711;51.972;21.204;2022-08-21T02:29:54;6.50;;;3.20;;
50745;SDS011;36711;51.972;21.204;2022-08-21T02:32:23;4.70;;;3.10;;
50745;SDS011;36711;51.972;21.204;2022-08-21T02:34:53;3.20;;;2.40;;
50745;SDS011;36711;51.972;21.204;2022-08-21T02:37:21;7.50;;;2.60;;
50745;SDS011;36711;51.972;21.204;2022-08-21T02:39:50;4.20;;;3.00;;
50745;SDS011;36711;51.972;21.204;2022-08-21T02:42:18;8.30;;;2.70;;
50745;SDS011;36711;51.972;21.204;2022-08-21T02:44:45;5.80;;;3.60;;
50745;SDS011;36711;51.972;21.204;2022-08-21T02:47:14;3.80;;;3.20;;
50745;SDS011;36711;51.972;21.204;2022-08-21T02:49:41;5.80;;;3.10;;
50745;SDS011;36711;51.972;21.204;2022-08-21T02:52:09;4.70;;;3.10;;
50745;SDS011;36711;51.972;21.204;2022-08-21T02:54:39;3.40;;;2.70;;
50745;SDS011;36711;51.972;21.204;2022-08-21T02:57:06;7.20;;;3.10;;
50745;SDS011;36711;51.972;21.204;2022-08-21T02:59:35;6.70;;;3.30;;
50745;SDS011;36711;51.972;21.204;2022-08-21T03:02:03;6.80;;;3.20;;
50745;SDS011;36711;51.972;21.204;2022-08-21T03:04:31;10.30;;;3.00;;
50745;SDS011;36711;51.972;21.204;2022-08-21T03:06:59;8.80;;;2.80;;
50745;SDS011;36711;51.972;21.204;2022-08-21T03:09:28;3.50;;;2.90;;
50745;SDS011;36711;51.972;21.204;2022-08-21T03:11:55;3.40;;;3.10;;
50745;SDS011;36711;51.972;21.204;2022-08-21T03:14:23;5.90;;;3.10;;
50745;SDS011;36711;51.972;21.204;2022-08-21T03:16:51;7.80;;;3.10;;
50745;SDS011;36711;51.972;21.204;2022-08-21T03:19:19;3.70;;;3.00;;
50745;SDS011;36711;51.972;21.204;2022-08-21T03:21:47;4.90;;;2.80;;
50745;SDS011;36711;51.972;21.204;2022-08-21T03:24:15;3.80;;;3.00;;
50745;SDS011;36711;51.972;21.204;2022-08-21T03:26:47;4.10;;;3.20;;
50745;SDS011;36711;51.972;21.204;2022-08-21T03:29:16;3.40;;;3.00;;
50745;SDS011;36711;51.972;21.204;2022-08-21T03:31:43;4.90;;;3.00;;
50745;SDS011;36711;51.972;21.204;2022-08-21T03:34:11;13.90;;;3.70;;
50745;SDS011;36711;51.972;21.204;2022-08-21T03:36:39;22.50;;;3.40;;
50745;SDS011;36711;51.972;21.204;2022-08-21T03:39:07;3.50;;;2.50;;
50745;SDS011;36711;51.972;21.204;2022-08-21T03:41:34;5.30;;;3.10;;
50745;SDS011;36711;51.972;21.204;2022-08-21T03:44:02;5.70;;;3.40;;
50745;SDS011;36711;51.972;21.204;2022-08-21T03:46:30;4.00;;;3.00;;
50745;SDS011;36711;51.972;21.204;2022-08-21T03:48:58;6.10;;;3.40;;
50745;SDS011;36711;51.972;21.204;2022-08-21T03:51:26;4.90;;;2.90;;
50745;SDS011;36711;51.972;21.204;2022-08-21T03:53:54;4.10;;;2.90;;
50745;SDS011;36711;51.972;21.204;2022-08-21T03:56:22;8.10;;;3.10;;
50745;SDS011;36711;51.972;21.204;2022-08-21T03:58:50;4.90;;;3.00;;
50745;SDS011;36711;51.972;21.204;2022-08-21T04:01:18;4.80;;;3.30;;
50745;SDS011;36711;51.972;21.204;2022-08-21T04:03:46;9.00;;;2.90;;
50745;SDS011;36711;51.972;21.204;2022-08-21T04:06:14;7.20;;;3.00;;
50745;SDS011;36711;51.972;21.204;2022-08-21T04:08:42;4.80;;;2.80;;
50745;SDS011;36711;51.972;21.204;2022-08-21T04:11:10;3.60;;;3.00;;
50745;SDS011;36711;51.972;21.204;2022-08-21T04:13:38;5.50;;;2.80;;
50745;SDS011;36711;51.972;21.204;2022-08-21T04:16:11;7.50;;;3.20;;
50745;SDS011;36711;51.972;21.204;2022-08-21T04:18:39;3.30;;;2.70;;
50745;SDS011;36711;51.972;21.204;2022-08-21T04:21:07;4.00;;;2.50;;
50745;SDS011;36711;51.972;21.204;2022-08-21T04:23:37;8.50;;;3.10;;
50745;SDS011;36711;51.972;21.204;2022-08-21T04:26:05;4.70;;;3.00;;
50745;SDS011;36711;51.972;21.204;2022-08-21T04:28:34;4.10;;;2.70;;
50745;SDS011;36711;51.972;21.204;2022-08-21T04:31:01;3.20;;;2.90;;
50745;SDS011;36711;51.972;21.204;2022-08-21T04:33:29;3.30;;;2.50;;
50745;SDS011;36711;51.972;21.204;2022-08-21T04:35:57;3.40;;;3.00;;
50745;SDS011;36711;51.972;21.204;2022-08-21T04:38:25;3.60;;;2.70;;
50745;SDS011;36711;51.972;21.204;2022-08-21T04:41:02;5.10;;;2.80;;
50745;SDS011;36711;51.972;21.204;2022-08-21T04:43:32;6.40;;;2.90;;
50745;SDS011;36711;51.972;21.204;2022-08-21T04:46:00;3.70;;;2.70;;
50745;SDS011;36711;51.972;21.204;2022-08-21T04:48:28;3.10;;;2.70;;
50745;SDS011;36711;51.972;21.204;2022-08-21T04:55:54;5.60;;;2.50;;
50745;SDS011;36711;51.972;21.204;2022-08-21T04:58:25;5.10;;;2.90;;
50745;SDS011;36711;51.972;21.204;2022-08-21T05:00:54;6.60;;;2.70;;
50745;SDS011;36711;51.972;21.204;2022-08-21T05:03:25;3.60;;;2.80;;
50745;SDS011;36711;51.972;21.204;2022-08-21T05:05:53;3.00;;;2.50;;
50745;SDS011;36711;51.972;21.204;2022-08-21T05:08:21;3.10;;;2.40;;
50745;SDS011;36711;51.972;21.204;2022-08-21T05:10:53;2.70;;;2.20;;
50745;SDS011;36711;51.972;21.204;2022-08-21T05:13:27;5.70;;;2.80;;
50745;SDS011;36711;51.972;21.204;2022-08-21T05:15:55;3.70;;;2.60;;
50745;SDS011;36711;51.972;21.204;2022-08-21T05:18:23;3.40;;;2.70;;
50745;SDS011;36711;51.972;21.204;2022-08-21T05:20:51;4.50;;;2.90;;
50745;SDS011;36711;51.972;21.204;2022-08-21T05:23:19;4.30;;;2.60;;
50745;SDS011;36711;51.972;21.204;2022-08-21T05:25:47;4.80;;;2.60;;
50745;SDS011;36711;51.972;21.204;2022-08-21T05:28:15;3.00;;;2.10;;
50745;SDS011;36711;51.972;21.204;2022-08-21T05:30:43;3.80;;;2.60;;
50745;SDS011;36711;51.972;21.204;2022-08-21T05:33:11;3.00;;;2.60;;
50745;SDS011;36711;51.972;21.204;2022-08-21T05:35:39;6.70;;;2.90;;
50745;SDS011;36711;51.972;21.204;2022-08-21T05:38:07;6.90;;;2.80;;
50745;SDS011;36711;51.972;21.204;2022-08-21T05:40:45;3.80;;;2.70;;
50745;SDS011;36711;51.972;21.204;2022-08-21T05:43:14;5.40;;;2.50;;
50745;SDS011;36711;51.972;21.204;2022-08-21T05:45:42;4.30;;;2.50;;
50745;SDS011;36711;51.972;21.204;2022-08-21T05:48:15;6.40;;;2.50;;
50745;SDS011;36711;51.972;21.204;2022-08-21T05:50:46;2.90;;;2.60;;
50745;SDS011;36711;51.972;21.204;2022-08-21T05:53:15;6.10;;;2.90;;
50745;SDS011;36711;51.972;21.204;2022-08-21T05:55:44;5.90;;;3.00;;
50745;SDS011;36711;51.972;21.204;2022-08-21T05:58:14;2.60;;;2.40;;
50745;SDS011;36711;51.972;21.204;2022-08-21T06:00:43;6.50;;;2.80;;
50745;SDS011;36711;51.972;21.204;2022-08-21T06:03:15;6.60;;;3.30;;
50745;SDS011;36711;51.972;21.204;2022-08-21T06:05:45;4.00;;;2.70;;
50745;SDS011;36711;51.972;21.204;2022-08-21T06:08:16;4.10;;;3.00;;
50745;SDS011;36711;51.972;21.204;2022-08-21T06:10:45;3.80;;;3.10;;
50745;SDS011;36711;51.972;21.204;2022-08-21T06:13:14;5.30;;;3.20;;
50745;SDS011;36711;51.972;21.204;2022-08-21T06:15:43;5.40;;;3.40;;
50745;SDS011;36711;51.972;21.204;2022-08-21T06:18:11;28.80;;;3.70;;
50745;SDS011;36711;51.972;21.204;2022-08-21T06:20:39;6.00;;;2.80;;
50745;SDS011;36711;51.972;21.204;2022-08-21T06:23:07;6.30;;;2.40;;
50745;SDS011;36711;51.972;21.204;2022-08-21T06:25:35;6.20;;;2.80;;
50745;SDS011;36711;51.972;21.204;2022-08-21T06:28:04;6.60;;;2.50;;
50745;SDS011;36711;51.972;21.204;2022-08-21T06:30:34;7.90;;;3.10;;
50745;SDS011;36711;51.972;21.204;2022-08-21T06:33:03;4.20;;;2.80;;
50745;SDS011;36711;51.972;21.204;2022-08-21T06:35:31;4.10;;;2.90;;
50745;SDS011;36711;51.972;21.204;2022-08-21T06:37:59;6.50;;;3.40;;
50745;SDS011;36711;51.972;21.204;2022-08-21T06:40:27;6.80;;;3.30;;
50745;SDS011;36711;51.972;21.204;2022-08-21T06:43:04;7.30;;;3.30;;
50745;SDS011;36711;51.972;21.204;2022-08-21T06:45:35;4.90;;;3.20;;
50745;SDS011;36711;51.972;21.204;2022-08-21T06:48:03;5.80;;;3.10;;
50745;SDS011;36711;51.972;21.204;2022-08-21T06:50:31;4.50;;;2.70;;
50745;SDS011;36711;51.972;21.204;2022-08-21T06:53:11;8.20;;;3.10;;
50745;SDS011;36711;51.972;21.204;2022-08-21T06:55:43;5.80;;;2.60;;
50745;SDS011;36711;51.972;21.204;2022-08-21T06:58:11;13.90;;;3.20;;
50745;SDS011;36711;51.972;21.204;2022-08-21T07:00:41;4.60;;;2.70;;
50745;SDS011;36711;51.972;21.204;2022-08-21T07:03:20;5.80;;;3.00;;
50745;SDS011;36711;51.972;21.204;2022-08-21T07:05:51;4.30;;;2.90;;
50745;SDS011;36711;51.972;21.204;2022-08-21T07:08:19;3.90;;;2.90;;
50745;SDS011;36711;51.972;21.204;2022-08-21T07:10:47;7.60;;;3.70;;
50745;SDS011;36711;51.972;21.204;2022-08-21T07:13:16;4.80;;;3.00;;
50745;SDS011;36711;51.972;21.204;2022-08-21T07:15:44;5.00;;;3.00;;
50745;SDS011;36711;51.972;21.204;2022-08-21T07:18:12;17.70;;;3.60;;
50745;SDS011;36711;51.972;21.204;2022-08-21T07:20:40;6.10;;;3.20;;
50745;SDS011;36711;51.972;21.204;2022-08-21T07:23:10;6.50;;;3.10;;
50745;SDS011;36711;51.972;21.204;2022-08-21T07:25:41;4.10;;;3.20;;
50745;SDS011;36711;51.972;21.204;2022-08-21T07:28:09;6.10;;;3.30;;
50745;SDS011;36711;51.972;21.204;2022-08-21T07:30:37;6.20;;;2.90;;
50745;SDS011;36711;51.972;21.204;2022-08-21T07:33:05;6.00;;;2.90;;
50745;SDS011;36711;51.972;21.204;2022-08-21T07:35:33;5.10;;;3.20;;
50745;SDS011;36711;51.972;21.204;2022-08-21T07:38:01;3.70;;;2.90;;
50745;SDS011;36711;51.972;21.204;2022-08-21T07:40:29;4.50;;;3.10;;
50745;SDS011;36711;51.972;21.204;2022-08-21T07:42:57;4.00;;;2.90;;
50745;SDS011;36711;51.972;21.204;2022-08-21T07:45:25;5.70;;;3.00;;
50745;SDS011;36711;51.972;21.204;2022-08-21T07:47:53;5.80;;;3.00;;
50745;SDS011;36711;51.972;21.204;2022-08-21T07:50:24;3.30;;;2.80;;
50745;SDS011;36711;51.972;21.204;2022-08-21T07:52:52;3.40;;;3.10;;
50745;SDS011;36711;51.972;21.204;2022-08-21T07:55:21;5.40;;;3.20;;
50745;SDS011;36711;51.972;21.204;2022-08-21T07:57:49;4.40;;;3.10;;
50745;SDS011;36711;51.972;21.204;2022-08-21T08:00:18;6.50;;;3.30;;
50745;SDS011;36711;51.972;21.204;2022-08-21T08:02:48;5.00;;;2.60;;
50745;SDS011;36711;51.972;21.204;2022-08-21T08:05:19;3.30;;;2.80;;
50745;SDS011;36711;51.972;21.204;2022-08-21T08:07:49;4.30;;;2.80;;
50745;SDS011;36711;51.972;21.204;2022-08-21T08:10:17;3.00;;;2.60;;
50745;SDS011;36711;51.972;21.204;2022-08-21T08:12:46;3.40;;;2.80;;
50745;SDS011;36711;51.972;21.204;2022-08-21T08:15:15;5.30;;;2.90;;
50745;SDS011;36711;51.972;21.204;2022-08-21T08:17:47;6.20;;;2.80;;
50745;SDS011;36711;51.972;21.204;2022-08-21T08:20:15;4.80;;;2.70;;
50745;SDS011;36711;51.972;21.204;2022-08-21T08:22:45;5.00;;;3.00;;
50745;SDS011;36711;51.972;21.204;2022-08-21T08:25:17;3.40;;;2.90;;
50745;SDS011;36711;51.972;21.204;2022-08-21T08:27:46;3.50;;;2.50;;
50745;SDS011;36711;51.972;21.204;2022-08-21T08:30:14;2.80;;;2.60;;
50745;SDS011;36711;51.972;21.204;2022-08-21T08:32:44;6.10;;;2.60;;
50745;SDS011;36711;51.972;21.204;2022-08-21T08:35:13;4.40;;;2.70;;
50745;SDS011;36711;51.972;21.204;2022-08-21T08:37:41;4.00;;;2.90;;
50745;SDS011;36711;51.972;21.204;2022-08-21T08:40:28;4.60;;;2.60;;
50745;SDS011;36711;51.972;21.204;2022-08-21T08:43:05;4.00;;;2.80;;
50745;SDS011;36711;51.972;21.204;2022-08-21T08:45:34;4.60;;;2.60;;
50745;SDS011;36711;51.972;21.204;2022-08-21T08:48:06;5.30;;;2.40;;
50745;SDS011;36711;51.972;21.204;2022-08-21T08:50:45;5.10;;;2.50;;
50745;SDS011;36711;51.972;21.204;2022-08-21T08:55:58;9.60;;;2.80;;
50745;SDS011;36711;51.972;21.204;2022-08-21T08:58:28;3.50;;;2.20;;
50745;SDS011;36711;51.972;21.204;2022-08-21T09:00:59;3.00;;;2.50;;
50745;SDS011;36711;51.972;21.204;2022-08-21T09:03:27;7.50;;;2.40;;
50745;SDS011;36711;51.972;21.204;2022-08-21T09:11:11;4.10;;;2.20;;
50745;SDS011;36711;51.972;21.204;2022-08-21T09:25:23;3.90;;;1.70;;
50745;SDS011;36711;51.972;21.204;2022-08-21T09:27:53;2.80;;;1.50;;
50745;SDS011;36711;51.972;21.204;2022-08-21T09:30:26;3.40;;;1.70;;
50745;SDS011;36711;51.972;21.204;2022-08-21T09:32:56;1.70;;;1.40;;
50745;SDS011;36711;51.972;21.204;2022-08-21T09:35:24;3.00;;;1.30;;
50745;SDS011;36711;51.972;21.204;2022-08-21T09:37:56;1.50;;;1.30;;
50745;SDS011;36711;51.972;21.204;2022-08-21T09:40:40;2.60;;;1.00;;
50745;SDS011;36711;51.972;21.204;2022-08-21T09:43:22;1.90;;;1.00;;
50745;SDS011;36711;51.972;21.204;2022-08-21T09:48:48;9.60;;;1.20;;
50745;SDS011;36711;51.972;21.204;2022-08-21T09:51:36;1.90;;;0.90;;
50745;SDS011;36711;51.972;21.204;2022-08-21T10:02:17;2.70;;;1.10;;
50745;SDS011;36711;51.972;21.204;2022-08-21T10:04:54;3.30;;;1.20;;
50745;SDS011;36711;51.972;21.204;2022-08-21T10:15:31;3.40;;;1.30;;
50745;SDS011;36711;51.972;21.204;2022-08-21T10:18:13;7.50;;;1.40;;
50745;SDS011;36711;51.972;21.204;2022-08-21T10:20:53;3.60;;;1.40;;
50745;SDS011;36711;51.972;21.204;2022-08-21T10:23:32;2.30;;;1.40;;
50745;SDS011;36711;51.972;21.204;2022-08-21T10:31:37;1.20;;;1.10;;
50745;SDS011;36711;51.972;21.204;2022-08-21T10:34:24;3.40;;;1.50;;
50745;SDS011;36711;51.972;21.204;2022-08-21T10:40:02;4.50;;;1.30;;
50745;SDS011;36711;51.972;21.204;2022-08-21T10:42:52;1.60;;;0.90;;
50745;SDS011;36711;51.972;21.204;2022-08-21T10:51:28;2.70;;;1.10;;
50745;SDS011;36711;51.972;21.204;2022-08-21T10:54:12;1.30;;;0.90;;
50745;SDS011;36711;51.972;21.204;2022-08-21T10:56:50;2.30;;;1.10;;
50745;SDS011;36711;51.972;21.204;2022-08-21T11:10:04;1.10;;;0.80;;
50745;SDS011;36711;51.972;21.204;2022-08-21T11:12:41;3.80;;;0.80;;
50745;SDS011;36711;51.972;21.204;2022-08-21T11:21:08;2.40;;;0.80;;
50745;SDS011;36711;51.972;21.204;2022-08-21T11:23:50;1.70;;;0.90;;
50745;SDS011;36711;51.972;21.204;2022-08-21T11:26:35;1.10;;;0.90;;
50745;SDS011;36711;51.972;21.204;2022-08-21T11:29:23;1.40;;;0.90;;
50745;SDS011;36711;51.972;21.204;2022-08-21T11:32:01;1.80;;;0.80;;
50745;SDS011;36711;51.972;21.204;2022-08-21T11:40:36;2.60;;;0.80;;
50745;SDS011;36711;51.972;21.204;2022-08-21T11:47:06;1.20;;;0.70;;
50745;SDS011;36711;51.972;21.204;2022-08-21T11:51:48;0.80;;;0.80;;
50745;SDS011;36711;51.972;21.204;2022-08-21T11:54:24;3.00;;;0.80;;
50745;SDS011;36711;51.972;21.204;2022-08-21T11:57:02;4.10;;;0.90;;
50745;SDS011;36711;51.972;21.204;2022-08-21T11:59:58;3.20;;;1.00;;
50745;SDS011;36711;51.972;21.204;2022-08-21T12:02:36;1.10;;;1.00;;
50745;SDS011;36711;51.972;21.204;2022-08-21T12:05:11;1.50;;;0.90;;
50745;SDS011;36711;51.972;21.204;2022-08-21T12:07:58;2.30;;;1.30;;
50745;SDS011;36711;51.972;21.204;2022-08-21T12:10:35;0.80;;;0.80;;
50745;SDS011;36711;51.972;21.204;2022-08-21T12:13:08;4.10;;;1.00;;
50745;SDS011;36711;51.972;21.204;2022-08-21T12:15:39;1.10;;;0.90;;
50745;SDS011;36711;51.972;21.204;2022-08-21T12:18:21;1.10;;;1.00;;
50745;SDS011;36711;51.972;21.204;2022-08-21T12:26:32;5.30;;;0.80;;
50745;SDS011;36711;51.972;21.204;2022-08-21T12:29:31;0.80;;;0.80;;
50745;SDS011;36711;51.972;21.204;2022-08-21T12:32:02;1.90;;;1.00;;
50745;SDS011;36711;51.972;21.204;2022-08-21T12:35:08;5.60;;;0.90;;
50745;SDS011;36711;51.972;21.204;2022-08-21T12:37:55;2.60;;;1.10;;
50745;SDS011;36711;51.972;21.204;2022-08-21T12:40:31;3.00;;;0.90;;
50745;SDS011;36711;51.972;21.204;2022-08-21T12:43:04;4.70;;;1.10;;
50745;SDS011;36711;51.972;21.204;2022-08-21T12:45:43;2.10;;;1.30;;
50745;SDS011;36711;51.972;21.204;2022-08-21T12:48:17;4.10;;;1.20;;
50745;SDS011;36711;51.972;21.204;2022-08-21T12:50:56;3.40;;;1.20;;
50745;SDS011;36711;51.972;21.204;2022-08-21T12:53:45;3.00;;;1.20;;
50745;SDS011;36711;51.972;21.204;2022-08-21T12:56:19;1.30;;;1.20;;
50745;SDS011;36711;51.972;21.204;2022-08-21T12:59:05;24.80;;;2.20;;
50745;SDS011;36711;51.972;21.204;2022-08-21T13:01:39;2.50;;;1.20;;
50745;SDS011;36711;51.972;21.204;2022-08-21T13:04:19;1.60;;;1.20;;
50745;SDS011;36711;51.972;21.204;2022-08-21T13:07:11;4.30;;;1.20;;
50745;SDS011;36711;51.972;21.204;2022-08-21T13:09:48;1.80;;;1.20;;
50745;SDS011;36711;51.972;21.204;2022-08-21T13:12:20;1.50;;;1.30;;
50745;SDS011;36711;51.972;21.204;2022-08-21T13:14:56;6.10;;;1.40;;
50745;SDS011;36711;51.972;21.204;2022-08-21T13:17:30;2.90;;;1.30;;
50745;SDS011;36711;51.972;21.204;2022-08-21T13:20:10;2.30;;;1.20;;
50745;SDS011;36711;51.972;21.204;2022-08-21T13:22:48;4.40;;;1.30;;
50745;SDS011;36711;51.972;21.204;2022-08-21T13:25:17;1.90;;;1.30;;
50745;SDS011;36711;51.972;21.204;2022-08-21T13:30:33;1.60;;;1.00;;
50745;SDS011;36711;51.972;21.204;2022-08-21T13:33:02;1.40;;;1.10;;
50745;SDS011;36711;51.972;21.204;2022-08-21T13:35:46;1.80;;;1.20;;
50745;SDS011;36711;51.972;21.204;2022-08-21T13:38:15;5.10;;;1.40;;
50745;SDS011;36711;51.972;21.204;2022-08-21T13:41:18;2.40;;;1.40;;
50745;SDS011;36711;51.972;21.204;2022-08-21T13:43:47;3.00;;;1.30;;
50745;SDS011;36711;51.972;21.204;2022-08-21T13:46:18;3.70;;;1.40;;
50745;SDS011;36711;51.972;21.204;2022-08-21T13:48:49;2.30;;;1.40;;
50745;SDS011;36711;51.972;21.204;2022-08-21T13:51:17;3.00;;;1.30;;
50745;SDS011;36711;51.972;21.204;2022-08-21T13:53:48;1.90;;;1.10;;
50745;SDS011;36711;51.972;21.204;2022-08-21T13:56:29;1.50;;;1.40;;
50745;SDS011;36711;51.972;21.204;2022-08-21T13:59:00;3.90;;;1.50;;
50745;SDS011;36711;51.972;21.204;2022-08-21T14:01:34;1.30;;;1.20;;
50745;SDS011;36711;51.972;21.204;2022-08-21T14:04:07;25.60;;;2.10;;
50745;SDS011;36711;51.972;21.204;2022-08-21T14:06:45;3.10;;;1.40;;
50745;SDS011;36711;51.972;21.204;2022-08-21T14:09:41;1.30;;;1.20;;
50745;SDS011;36711;51.972;21.204;2022-08-21T14:12:10;1.90;;;1.40;;
50745;SDS011;36711;51.972;21.204;2022-08-21T14:15:01;2.60;;;1.40;;
50745;SDS011;36711;51.972;21.204;2022-08-21T14:17:37;2.60;;;1.40;;
50745;SDS011;36711;51.972;21.204;2022-08-21T14:20:10;1.40;;;1.30;;
50745;SDS011;36711;51.972;21.204;2022-08-21T14:22:52;2.00;;;1.40;;
50745;SDS011;36711;51.972;21.204;2022-08-21T14:27:54;2.40;;;1.30;;
50745;SDS011;36711;51.972;21.204;2022-08-21T14:30:46;3.30;;;1.40;;
50745;SDS011;36711;51.972;21.204;2022-08-21T14:33:20;4.00;;;1.60;;
50745;SDS011;36711;51.972;21.204;2022-08-21T14:35:54;1.50;;;1.40;;
50745;SDS011;36711;51.972;21.204;2022-08-21T14:38:23;5.00;;;1.70;;
50745;SDS011;36711;51.972;21.204;2022-08-21T14:40:57;2.20;;;1.40;;
50745;SDS011;36711;51.972;21.204;2022-08-21T14:43:27;2.70;;;1.30;;
50745;SDS011;36711;51.972;21.204;2022-08-21T14:45:58;1.50;;;1.40;;
50745;SDS011;36711;51.972;21.204;2022-08-21T14:48:27;4.60;;;1.70;;
50745;SDS011;36711;51.972;21.204;2022-08-21T14:50:55;3.30;;;1.40;;
50745;SDS011;36711;51.972;21.204;2022-08-21T14:53:27;2.00;;;1.60;;
50745;SDS011;36711;51.972;21.204;2022-08-21T14:55:54;3.20;;;1.30;;
50745;SDS011;36711;51.972;21.204;2022-08-21T14:58:36;2.30;;;1.20;;
50745;SDS011;36711;51.972;21.204;2022-08-21T15:01:06;1.80;;;1.40;;
50745;SDS011;36711;51.972;21.204;2022-08-21T15:03:35;21.40;;;2.00;;
50745;SDS011;36711;51.972;21.204;2022-08-21T15:06:04;4.60;;;1.60;;
50745;SDS011;36711;51.972;21.204;2022-08-21T15:08:32;5.10;;;1.50;;
50745;SDS011;36711;51.972;21.204;2022-08-21T15:11:01;3.60;;;1.70;;
50745;SDS011;36711;51.972;21.204;2022-08-21T15:13:42;2.30;;;1.30;;
50745;SDS011;36711;51.972;21.204;2022-08-21T15:16:10;3.20;;;1.30;;
50745;SDS011;36711;51.972;21.204;2022-08-21T15:18:39;2.10;;;1.60;;
50745;SDS011;36711;51.972;21.204;2022-08-21T15:21:07;3.30;;;1.50;;
50745;SDS011;36711;51.972;21.204;2022-08-21T15:23:36;3.10;;;1.50;;
50745;SDS011;36711;51.972;21.204;2022-08-21T15:26:10;2.20;;;1.60;;
50745;SDS011;36711;51.972;21.204;2022-08-21T15:28:39;2.40;;;1.40;;
50745;SDS011;36711;51.972;21.204;2022-08-21T15:31:07;3.60;;;1.40;;
50745;SDS011;36711;51.972;21.204;2022-08-21T15:33:34;7.50;;;1.60;;
50745;SDS011;36711;51.972;21.204;2022-08-21T15:36:02;4.50;;;1.80;;
50745;SDS011;36711;51.972;21.204;2022-08-21T15:38:30;4.50;;;1.60;;
50745;SDS011;36711;51.972;21.204;2022-08-21T15:40:58;4.10;;;1.70;;
50745;SDS011;36711;51.972;21.204;2022-08-21T15:43:27;3.20;;;1.50;;
50745;SDS011;36711;51.972;21.204;2022-08-21T15:45:58;2.50;;;1.70;;
50745;SDS011;36711;51.972;21.204;2022-08-21T15:48:27;2.00;;;1.60;;
50745;SDS011;36711;51.972;21.204;2022-08-21T15:50:55;2.00;;;1.80;;
50745;SDS011;36711;51.972;21.204;2022-08-21T15:53:23;2.20;;;2.00;;
50745;SDS011;36711;51.972;21.204;2022-08-21T15:55:51;2.00;;;1.80;;
50745;SDS011;36711;51.972;21.204;2022-08-21T15:58:19;2.20;;;1.70;;
50745;SDS011;36711;51.972;21.204;2022-08-21T16:00:48;2.10;;;1.90;;
50745;SDS011;36711;51.972;21.204;2022-08-21T16:03:16;6.30;;;2.40;;
50745;SDS011;36711;51.972;21.204;2022-08-21T16:05:47;2.00;;;1.80;;
50745;SDS011;36711;51.972;21.204;2022-08-21T16:08:16;3.90;;;1.70;;
50745;SDS011;36711;51.972;21.204;2022-08-21T16:10:44;3.30;;;2.30;;
50745;SDS011;36711;51.972;21.204;2022-08-21T16:13:15;2.40;;;2.20;;
50745;SDS011;36711;51.972;21.204;2022-08-21T16:15:52;3.60;;;2.10;;
50745;SDS011;36711;51.972;21.204;2022-08-21T16:18:20;5.40;;;2.50;;
50745;SDS011;36711;51.972;21.204;2022-08-21T16:20:50;4.50;;;2.60;;
50745;SDS011;36711;51.972;21.204;2022-08-21T16:23:17;4.30;;;2.30;;
50745;SDS011;36711;51.972;21.204;2022-08-21T16:25:45;7.90;;;2.40;;
50745;SDS011;36711;51.972;21.204;2022-08-21T16:28:15;8.30;;;2.60;;
50745;SDS011;36711;51.972;21.204;2022-08-21T16:30:45;4.60;;;2.40;;
50745;SDS011;36711;51.972;21.204;2022-08-21T16:33:22;18.20;;;2.80;;
50745;SDS011;36711;51.972;21.204;2022-08-21T16:35:55;4.10;;;2.30;;
50745;SDS011;36711;51.972;21.204;2022-08-21T16:38:23;4.90;;;2.40;;